Time;durP1;ratioP1;P1;durP2;ratioP2;P2;SDS_P1;SDS_P2;PMS_P1;PMS_P2;Temp;Humidity;BMP_temperature;BMP_pressure;BME280_temperature;BME280_humidity;BME280_pressure;Samples;Min_cycle;Max_cycle;Signal;HPM_P1;HPM_P2
2023/11/30 00:02:21;;;;;;;3.67;1.77;;;;;;;-3.27;nan;98620.63;7394132;19;20015;-80
2023/11/30 00:04:47;;;;;;;1.70;1.60;;;;;;;-3.29;nan;98620.28;7393696;19;20014;-80
2023/11/30 00:07:13;;;;;;;7.72;4.40;;;;;;;-3.29;nan;98620.28;7394421;19;20033;-80
2023/11/30 00:09:39;;;;;;;6.88;2.03;;;;;;;-3.33;nan;98622.28;7395266;19;20009;-80
2023/11/30 00:12:05;;;;;;;2.05;1.95;;;;;;;-3.32;nan;98620.34;7393472;19;20021;-80
2023/11/30 00:14:31;;;;;;;8.35;3.30;;;;;;;-3.35;nan;98615.72;7390760;19;20006;-80
2023/11/30 00:16:58;;;;;;;5.15;2.30;;;;;;;-3.34;nan;98622.69;7393440;19;20007;-81
2023/11/30 00:19:24;;;;;;;2.17;2.08;;;;;;;-3.38;nan;98628.19;7393808;19;20469;-80
2023/11/30 00:21:50;;;;;;;1.33;1.33;;;;;;;-3.40;nan;98625.09;7394069;19;20043;-80
2023/11/30 00:24:16;;;;;;;2.42;2.33;;;;;;;-3.44;nan;98623.63;7393514;19;20022;-81
2023/11/30 00:26:43;;;;;;;0.70;0.70;;;;;;;-3.52;nan;98628.41;7394010;19;20010;-80
2023/11/30 00:29:09;;;;;;;2.05;1.58;;;;;;;-3.54;nan;98617.16;7392919;19;20010;-80
2023/11/30 00:31:35;;;;;;;0.95;0.95;;;;;;;-3.58;nan;98616.47;7394096;19;20010;-80
2023/11/30 00:34:01;;;;;;;6.55;3.28;;;;;;;-3.61;nan;98614.53;7392383;19;20007;-80
2023/11/30 00:36:27;;;;;;;8.25;1.33;;;;;;;-3.62;nan;98606.81;7394298;19;20006;-80
2023/11/30 00:38:53;;;;;;;13.93;2.40;;;;;;;-3.60;nan;98610.66;7392006;19;20504;-80
2023/11/30 00:41:20;;;;;;;6.25;2.40;;;;;;;-3.59;nan;98601.31;7391347;19;20015;-80
2023/11/30 00:43:46;;;;;;;4.43;1.65;;;;;;;-3.55;nan;98602.00;7394093;19;20354;-80
2023/11/30 00:46:15;;;;;;;2.15;2.05;;;;;;;-3.52;nan;98601.19;7394765;19;20370;-80
2023/11/30 00:48:42;;;;;;;4.22;2.47;;;;;;;-3.47;nan;98602.69;7392060;19;20014;-80
2023/11/30 00:51:09;;;;;;;6.32;2.10;;;;;;;-3.42;nan;98608.41;7393425;19;20010;-80
2023/11/30 00:53:39;;;;;;;1.73;1.63;;;;;;;-3.41;nan;98611.91;7393094;19;20038;-80
2023/11/30 00:56:06;;;;;;;12.63;3.05;;;;;;;-3.39;nan;98610.34;7392354;19;20014;-81
2023/11/30 00:58:33;;;;;;;1.38;1.30;;;;;;;-3.43;nan;98609.63;7392027;19;20018;-80
2023/11/30 01:00:59;;;;;;;0.70;0.70;;;;;;;-3.46;nan;98607.72;7394166;19;20023;-80
2023/11/30 01:03:25;;;;;;;5.20;3.40;;;;;;;-3.47;nan;98600.75;7391521;19;20457;-79
2023/11/30 01:05:51;;;;;;;1.85;1.75;;;;;;;-3.51;nan;98601.97;7393148;19;20011;-80
2023/11/30 01:08:18;;;;;;;1.02;1.02;;;;;;;-3.47;nan;98603.47;7392668;19;20014;-80
2023/11/30 01:10:44;;;;;;;0.82;0.82;;;;;;;-3.45;nan;98595.66;7390861;19;20035;-81
2023/11/30 01:13:10;;;;;;;1.63;1.00;;;;;;;-3.44;nan;98597.19;7391784;19;20365;-81
2023/11/30 01:15:36;;;;;;;11.00;3.60;;;;;;;-3.37;nan;98599.81;7392954;19;20011;-82
2023/11/30 01:18:05;;;;;;;7.65;2.70;;;;;;;-3.31;nan;98595.41;7393556;19;20031;-80
2023/11/30 01:20:32;;;;;;;8.20;3.33;;;;;;;-3.26;nan;98597.69;7392264;19;20017;-79
2023/11/30 01:22:59;;;;;;;2.10;2.00;;;;;;;-3.26;nan;98597.69;7391993;19;20679;-79
2023/11/30 01:25:25;;;;;;;5.80;2.00;;;;;;;-3.28;nan;98597.31;7389775;19;20024;-82
2023/11/30 01:27:52;;;;;;;0.93;0.90;;;;;;;-3.23;nan;98598.81;7392196;19;20010;-79
2023/11/30 01:30:19;;;;;;;13.57;2.10;;;;;;;-3.14;nan;98599.81;7390373;19;20408;-79
2023/11/30 01:32:45;;;;;;;1.23;1.23;;;;;;;-2.95;nan;98597.56;7392795;19;20010;-80
2023/11/30 01:35:11;;;;;;;0.47;0.47;;;;;;;-2.80;nan;98602.34;7391228;19;20006;-81
2023/11/30 01:37:41;;;;;;;2.03;0.98;;;;;;;-1.91;nan;98591.22;7390275;19;20026;-80
2023/11/30 01:40:08;;;;;;;5.70;2.05;;;;;;;-1.07;nan;98595.88;7390108;19;20002;-80
2023/11/30 01:42:35;;;;;;;16.92;2.05;;;;;;;-0.77;nan;98595.50;7390940;19;20025;-81
2023/11/30 01:45:02;;;;;;;9.05;2.15;;;;;;;-0.52;nan;98590.13;7390489;19;20018;-79
2023/11/30 01:47:30;;;;;;;0.30;0.30;;;;;;;-0.31;nan;98586.06;7389839;19;20459;-80
2023/11/30 01:49:56;;;;;;;0.85;0.85;;;;;;;-0.12;nan;98580.41;7390720;19;20038;-80
2023/11/30 01:52:23;;;;;;;0.47;0.47;;;;;;;0.03;nan;98582.72;7390460;19;20472;-79
2023/11/30 01:54:50;;;;;;;0.50;0.50;;;;;;;0.13;nan;98584.41;7389204;19;20386;-79
2023/11/30 01:57:17;;;;;;;1.58;1.48;;;;;;;0.26;nan;98582.44;7390087;19;20002;-79
2023/11/30 01:59:45;;;;;;;6.47;1.25;;;;;;;0.34;nan;98573.56;7388446;19;20086;-80
2023/11/30 02:02:12;;;;;;;0.25;0.25;;;;;;;0.43;nan;98570.16;7391655;19;20022;-79
2023/11/30 02:04:41;;;;;;;1.77;0.70;;;;;;;-0.23;nan;98569.00;7389520;19;20026;-79
2023/11/30 02:07:09;;;;;;;0.40;0.40;;;;;;;-0.26;nan;98569.88;7389984;19;20030;-80
2023/11/30 02:09:35;;;;;;;1.38;1.27;;;;;;;-0.16;nan;98568.03;7390412;19;20065;-80
2023/11/30 02:12:01;;;;;;;1.40;1.30;;;;;;;-0.05;nan;98563.81;7389440;19;20014;-80
2023/11/30 02:14:32;;;;;;;0.93;0.85;;;;;;;0.07;nan;98559.53;7386481;19;20357;-79
2023/11/30 02:16:58;;;;;;;0.63;0.63;;;;;;;0.27;nan;98562.06;7390667;19;20105;-80
2023/11/30 02:19:24;;;;;;;0.90;0.85;;;;;;;0.40;nan;98565.56;7388249;19;20013;-80
2023/11/30 02:21:51;;;;;;;0.50;0.50;;;;;;;0.42;nan;98558.44;7389751;19;20014;-80
2023/11/30 02:24:17;;;;;;;5.07;1.20;;;;;;;0.47;nan;98565.34;7388290;19;20031;-82
2023/11/30 02:26:43;;;;;;;4.22;2.53;;;;;;;0.48;nan;98566.88;7389164;19;20066;-82
2023/11/30 02:29:09;;;;;;;0.60;0.60;;;;;;;0.50;nan;98564.44;7389218;19;20007;-80
2023/11/30 02:31:36;;;;;;;0.22;0.22;;;;;;;0.52;nan;98567.53;7387589;19;20338;-80
2023/11/30 02:34:02;;;;;;;0.80;0.80;;;;;;;0.59;nan;98561.81;7392289;19;20344;-82
2023/11/30 02:36:28;;;;;;;0.55;0.55;;;;;;;0.55;nan;98561.94;7389198;19;20019;-80
2023/11/30 02:38:55;;;;;;;0.45;0.45;;;;;;;0.63;nan;98557.00;7389513;19;20472;-80
2023/11/30 02:41:21;;;;;;;1.40;1.02;;;;;;;0.80;nan;98561.16;7390082;19;20516;-82
2023/11/30 02:43:47;;;;;;;0.30;0.30;;;;;;;0.95;nan;98558.69;7388440;19;20007;-82
2023/11/30 02:46:13;;;;;;;0.20;0.20;;;;;;;1.13;nan;98559.63;7388303;19;20010;-83
2023/11/30 02:48:40;;;;;;;2.00;0.90;;;;;;;1.36;nan;98559.22;7388008;19;20027;-83
2023/11/30 02:51:06;;;;;;;0.50;0.50;;;;;;;1.45;nan;98556.53;7389697;19;20035;-82
2023/11/30 02:53:32;;;;;;;0.15;0.15;;;;;;;1.46;nan;98574.53;7389448;19;20010;-82
2023/11/30 02:56:00;;;;;;;0.30;0.30;;;;;;;1.55;nan;98565.63;7388573;19;20381;-82
2023/11/30 02:58:26;;;;;;;0.50;0.50;;;;;;;1.70;nan;98572.13;7387074;19;19999;-83
2023/11/30 03:00:52;;;;;;;1.48;0.80;;;;;;;1.75;nan;98568.03;7388876;19;20022;-81
2023/11/30 03:03:18;;;;;;;0.20;0.20;;;;;;;1.73;nan;98575.94;7388403;19;20441;-80
2023/11/30 03:05:44;;;;;;;1.95;1.00;;;;;;;1.75;nan;98568.81;7387139;19;20010;-81
2023/11/30 03:08:10;;;;;;;0.90;0.57;;;;;;;1.83;nan;98574.78;7389196;19;20010;-80
2023/11/30 03:10:37;;;;;;;0.30;0.30;;;;;;;1.85;nan;98572.38;7389751;19;20013;-81
2023/11/30 03:13:03;;;;;;;0.30;0.30;;;;;;;1.85;nan;98572.38;7389380;19;20027;-81
2023/11/30 03:15:30;;;;;;;0.50;0.50;;;;;;;1.87;nan;98567.19;7387425;19;20014;-81
2023/11/30 03:17:56;;;;;;;0.60;0.60;;;;;;;1.86;nan;98573.91;7389427;19;20011;-80
2023/11/30 03:20:22;;;;;;;0.82;0.60;;;;;;;1.87;nan;98575.44;7386877;19;20042;-80
2023/11/30 03:22:48;;;;;;;0.30;0.30;;;;;;;1.91;nan;98565.06;7387636;19;20014;-81
2023/11/30 03:25:15;;;;;;;0.45;0.10;;;;;;;1.96;nan;98572.75;7387890;19;20017;-81
2023/11/30 03:27:41;;;;;;;0.93;0.47;;;;;;;1.98;nan;98571.09;7393809;19;19998;-81
2023/11/30 03:30:08;;;;;;;0.50;0.45;;;;;;;1.93;nan;98566.16;7395559;19;20357;-81
2023/11/30 03:32:34;;;;;;;0.20;0.20;;;;;;;1.84;nan;98565.34;7395405;19;20007;-81
2023/11/30 03:35:00;;;;;;;1.30;1.23;;;;;;;1.72;nan;98564.22;7394356;19;20544;-81
2023/11/30 03:37:26;;;;;;;0.25;0.25;;;;;;;1.73;nan;98570.47;7394035;19;20021;-81
2023/11/30 03:39:53;;;;;;;0.82;0.82;;;;;;;1.64;nan;98573.16;7394956;19;20031;-81
2023/11/30 03:42:19;;;;;;;0.30;0.30;;;;;;;1.59;nan;98573.69;7394080;19;20472;-80
2023/11/30 03:44:46;;;;;;;5.05;0.73;;;;;;;1.62;nan;98575.56;7392724;19;20460;-81
2023/11/30 03:47:12;;;;;;;0.43;0.43;;;;;;;1.61;nan;98563.81;7394962;19;20066;-81
2023/11/30 03:49:38;;;;;;;2.83;0.35;;;;;;;1.60;nan;98578.00;7395619;19;20368;-82
2023/11/30 03:52:04;;;;;;;0.40;0.40;;;;;;;1.59;nan;98582.72;7395747;19;20011;-81
2023/11/30 03:54:30;;;;;;;0.98;0.88;;;;;;;1.56;nan;98580.09;7393235;19;20363;-81
2023/11/30 03:56:56;;;;;;;0.30;0.30;;;;;;;1.54;nan;98581.31;7394737;19;20109;-81
2023/11/30 03:59:22;;;;;;;0.80;0.80;;;;;;;1.54;nan;98575.81;7392596;19;20026;-81
2023/11/30 04:01:48;;;;;;;0.28;0.28;;;;;;;1.48;nan;98580.34;7394967;19;20013;-81
2023/11/30 04:04:15;;;;;;;5.35;0.85;;;;;;;1.39;nan;98583.00;7392983;19;20010;-80
2023/11/30 04:06:41;;;;;;;0.32;0.32;;;;;;;1.28;nan;98574.38;7392307;19;20342;-81
2023/11/30 04:09:08;;;;;;;2.42;1.67;;;;;;;1.21;nan;98582.09;7396425;19;20467;-81
2023/11/30 04:11:34;;;;;;;2.25;0.90;;;;;;;1.12;nan;98582.78;7393155;19;20085;-82
2023/11/30 04:14:05;;;;;;;0.47;0.47;;;;;;;1.12;nan;98596.50;7393579;19;20009;-81
2023/11/30 04:16:32;;;;;;;0.10;0.10;;;;;;;1.12;nan;98582.78;7394617;19;20011;-80
2023/11/30 04:18:59;;;;;;;3.75;0.70;;;;;;;1.04;nan;98581.47;7394263;19;20007;-80
2023/11/30 04:21:25;;;;;;;0.75;0.65;;;;;;;1.01;nan;98587.06;7393035;19;20398;-80
2023/11/30 04:23:51;;;;;;;5.00;0.82;;;;;;;1.02;nan;98585.88;7391950;19;20017;-81
2023/11/30 04:26:17;;;;;;;0.90;0.90;;;;;;;1.10;nan;98590.69;7392222;19;20021;-81
2023/11/30 04:28:43;;;;;;;0.43;0.43;;;;;;;1.08;nan;98593.09;7392914;19;20006;-80
2023/11/30 04:31:09;;;;;;;1.85;1.65;;;;;;;1.11;nan;98596.91;7393705;19;20014;-81
2023/11/30 04:33:35;;;;;;;0.93;0.50;;;;;;;1.08;nan;98597.81;7393675;19;20002;-80
2023/11/30 04:36:02;;;;;;;1.15;1.05;;;;;;;1.12;nan;98593.75;7395307;19;20020;-80
2023/11/30 04:38:29;;;;;;;1.55;0.50;;;;;;;1.12;nan;98593.75;7388917;19;20017;-80
2023/11/30 04:40:58;;;;;;;1.65;0.60;;;;;;;1.13;nan;98599.97;7392013;19;20103;-81
2023/11/30 04:43:24;;;;;;;3.53;1.38;;;;;;;1.18;nan;98600.19;7391096;19;20022;-80
2023/11/30 04:45:50;;;;;;;0.10;0.10;;;;;;;1.18;nan;98602.94;7393453;19;20564;-81
2023/11/30 04:48:17;;;;;;;1.05;1.05;;;;;;;1.21;nan;98607.53;7395609;19;20009;-81
2023/11/30 04:50:43;;;;;;;3.45;1.35;;;;;;;1.19;nan;98615.41;7392052;19;20017;-80
2023/11/30 04:53:09;;;;;;;0.93;0.57;;;;;;;1.20;nan;98611.47;7392469;19;20018;-80
2023/11/30 04:55:35;;;;;;;0.63;0.63;;;;;;;1.17;nan;98611.63;7390338;19;20014;-80
2023/11/30 04:58:01;;;;;;;2.30;0.30;;;;;;;1.10;nan;98620.84;7393462;19;20021;-80
2023/11/30 05:00:27;;;;;;;1.08;1.05;;;;;;;1.01;nan;98620.75;7390883;19;19999;-81
2023/11/30 05:02:55;;;;;;;1.00;1.00;;;;;;;0.93;nan;98619.44;7394268;19;20011;-80
2023/11/30 05:05:22;;;;;;;1.05;0.85;;;;;;;0.88;nan;98616.47;7391904;19;20130;-80
2023/11/30 05:07:49;;;;;;;2.38;0.50;;;;;;;0.82;nan;98612.75;7391047;19;20015;-80
2023/11/30 05:10:15;;;;;;;0.30;0.30;;;;;;;0.77;nan;98611.34;7393414;19;20018;-80
2023/11/30 05:12:41;;;;;;;5.90;1.70;;;;;;;0.70;nan;98611.56;7392708;19;20010;-80
2023/11/30 05:15:07;;;;;;;0.68;0.68;;;;;;;0.64;nan;98616.06;7392481;19;20372;-80
2023/11/30 05:17:33;;;;;;;2.55;0.65;;;;;;;0.53;nan;98612.88;7392359;19;20066;-80
2023/11/30 05:20:02;;;;;;;0.57;0.55;;;;;;;0.48;nan;98621.63;7390396;19;20074;-80
2023/11/30 05:22:29;;;;;;;1.38;0.93;;;;;;;0.43;nan;98616.72;7390716;19;20091;-80
2023/11/30 05:24:55;;;;;;;0.40;0.40;;;;;;;0.33;nan;98615.06;7391208;19;20006;-81
2023/11/30 05:27:21;;;;;;;0.25;0.25;;;;;;;0.28;nan;98607.41;7390086;19;20017;-79
2023/11/30 05:29:47;;;;;;;0.88;0.77;;;;;;;0.29;nan;98606.97;7391845;19;20066;-80
2023/11/30 05:32:13;;;;;;;1.55;0.75;;;;;;;0.24;nan;98601.28;7393454;19;20026;-80
2023/11/30 05:34:40;;;;;;;0.50;0.50;;;;;;;0.21;nan;98597.44;7390715;19;20072;-80
2023/11/30 05:37:06;;;;;;;3.30;0.40;;;;;;;0.16;nan;98600.69;7389912;19;20021;-80
2023/11/30 05:39:33;;;;;;;2.03;0.90;;;;;;;0.12;nan;98607.47;7391077;19;20014;-80
2023/11/30 05:41:59;;;;;;;0.50;0.50;;;;;;;0.11;nan;98603.22;7390665;19;20108;-80
2023/11/30 05:44:25;;;;;;;1.65;0.82;;;;;;;0.10;nan;98607.94;7391118;19;20018;-80
2023/11/30 05:46:52;;;;;;;2.95;1.00;;;;;;;0.07;nan;98602.53;7391045;19;20014;-80
2023/11/30 05:49:18;;;;;;;0.50;0.50;;;;;;;0.07;nan;98608.78;7390411;19;20010;-80
2023/11/30 05:51:44;;;;;;;0.20;0.20;;;;;;;0.07;nan;98619.72;7391062;19;20026;-80
2023/11/30 05:54:10;;;;;;;1.75;1.00;;;;;;;0.04;nan;98617.09;7391202;19;20504;-80
2023/11/30 05:56:37;;;;;;;2.75;0.77;;;;;;;0.02;nan;98627.72;7390048;19;20380;-80
2023/11/30 05:59:03;;;;;;;1.33;0.65;;;;;;;0.00;nan;98631.66;7391503;19;20428;-81
2023/11/30 06:01:29;;;;;;;0.45;0.45;;;;;;;0.03;nan;98627.28;7388612;19;20011;-80
2023/11/30 06:03:55;;;;;;;0.30;0.30;;;;;;;0.06;nan;98625.66;7390680;19;20035;-80
2023/11/30 06:06:21;;;;;;;0.30;0.30;;;;;;;0.23;nan;98629.84;7390520;19;20014;-80
2023/11/30 06:08:48;;;;;;;0.75;0.75;;;;;;;0.45;nan;98633.47;7390612;19;20070;-80
2023/11/30 06:11:17;;;;;;;0.40;0.40;;;;;;;0.50;nan;98641.13;7389541;19;20006;-80
2023/11/30 06:13:43;;;;;;;0.30;0.30;;;;;;;0.48;nan;98638.06;7388228;19;20077;-80
2023/11/30 06:16:10;;;;;;;0.20;0.20;;;;;;;0.47;nan;98642.03;7391169;19;20014;-80
2023/11/30 06:18:36;;;;;;;0.28;0.28;;;;;;;0.38;nan;98633.69;7388755;19;20014;-81
2023/11/30 06:21:02;;;;;;;0.30;0.30;;;;;;;0.33;nan;98636.97;7391579;19;20028;-81
2023/11/30 06:23:28;;;;;;;0.40;0.40;;;;;;;0.29;nan;98637.06;7390104;19;20014;-80
2023/11/30 06:25:56;;;;;;;0.50;0.50;;;;;;;0.26;nan;98629.72;7391306;19;20006;-80
2023/11/30 06:28:22;;;;;;;0.68;0.68;;;;;;;0.26;nan;98631.72;7389008;19;20002;-81
2023/11/30 06:30:48;;;;;;;0.75;0.55;;;;;;;0.26;nan;98642.66;7390018;19;20042;-81
2023/11/30 06:33:14;;;;;;;0.10;0.10;;;;;;;0.25;nan;98649.31;7390813;19;20116;-81
2023/11/30 06:35:40;;;;;;;2.38;0.52;;;;;;;0.21;nan;98646.69;7388231;19;20006;-80
2023/11/30 06:38:07;;;;;;;0.25;0.25;;;;;;;0.17;nan;98650.75;7391115;19;20006;-81
2023/11/30 06:40:33;;;;;;;0.50;0.50;;;;;;;0.11;nan;98653.22;7389981;19;20479;-81
2023/11/30 06:42:59;;;;;;;0.15;0.15;;;;;;;0.09;nan;98660.38;7389078;19;20018;-81
2023/11/30 06:45:25;;;;;;;0.25;0.25;;;;;;;0.02;nan;98655.09;7388225;19;20460;-81
2023/11/30 06:47:51;;;;;;;3.80;1.85;;;;;;;-0.04;nan;98663.81;7390165;19;20370;-80
2023/11/30 06:50:17;;;;;;;0.40;0.40;;;;;;;-0.09;nan;98656.13;7387541;19;20014;-80
2023/11/30 06:52:43;;;;;;;2.80;0.90;;;;;;;-0.10;nan;98660.09;7389843;19;20058;-80
2023/11/30 06:55:09;;;;;;;0.15;0.15;;;;;;;-0.03;nan;98670.06;7388628;19;20002;-80
2023/11/30 06:57:38;;;;;;;0.50;0.50;;;;;;;0.06;nan;98667.47;7387022;19;20420;-81
2023/11/30 07:00:10;;;;;;;0.30;0.30;;;;;;;0.18;nan;98671.44;7387828;19;20379;-81
2023/11/30 07:02:36;;;;;;;0.30;0.30;;;;;;;0.23;nan;98676.38;7388525;19;20023;-80
2023/11/30 07:05:05;;;;;;;1.67;1.15;;;;;;;0.38;nan;98667.31;7387534;19;20014;-81
2023/11/30 07:07:34;;;;;;;0.55;0.55;;;;;;;0.47;nan;98670.19;7386897;19;20062;-81
2023/11/30 07:10:00;;;;;;;0.20;0.20;;;;;;;0.68;nan;98668.75;7388630;19;20467;-81
2023/11/30 07:12:27;;;;;;;0.85;0.75;;;;;;;0.74;nan;98667.00;7387943;19;20466;-81
2023/11/30 07:14:53;;;;;;;0.10;0.10;;;;;;;0.68;nan;98668.75;7386012;19;20018;-81
2023/11/30 07:17:23;;;;;;;0.85;0.85;;;;;;;0.70;nan;98663.59;7386203;19;20011;-81
2023/11/30 07:19:52;;;;;;;0.20;0.20;;;;;;;0.85;nan;98675.66;7387674;19;20053;-80
2023/11/30 07:22:18;;;;;;;0.38;0.20;;;;;;;0.94;nan;98675.00;7388798;19;20002;-80
2023/11/30 07:24:46;;;;;;;0.35;0.35;;;;;;;1.03;nan;98675.88;7388468;19;20121;-81
2023/11/30 07:27:19;;;;;;;0.17;0.17;;;;;;;1.13;nan;98677.50;7388817;19;20006;-81
2023/11/30 07:29:45;;;;;;;0.73;0.73;;;;;;;1.20;nan;98682.00;7388416;19;20465;-81
2023/11/30 07:32:15;;;;;;;0.28;0.28;;;;;;;1.23;nan;98684.63;7387987;19;20026;-81
2023/11/30 07:34:42;;;;;;;0.10;0.10;;;;;;;1.26;nan;98691.97;7389420;19;20366;-81
2023/11/30 07:37:08;;;;;;;0.20;0.20;;;;;;;1.29;nan;98688.34;7388580;19;20465;-81
2023/11/30 07:39:34;;;;;;;0.22;0.22;;;;;;;1.29;nan;98696.59;7385903;19;20002;-81
2023/11/30 07:42:01;;;;;;;0.20;0.20;;;;;;;1.28;nan;98688.78;7386924;19;20019;-81
2023/11/30 07:44:28;;;;;;;0.15;0.15;;;;;;;1.25;nan;98698.69;7386187;19;20014;-81
2023/11/30 07:46:54;;;;;;;0.80;0.80;;;;;;;1.20;nan;98704.72;7389463;19;20019;-81
2023/11/30 07:49:20;;;;;;;0.20;0.20;;;;;;;1.21;nan;98708.97;7390233;19;20014;-81
2023/11/30 07:51:46;;;;;;;0.20;0.20;;;;;;;1.21;nan;98706.22;7388539;19;20082;-81
2023/11/30 07:54:13;;;;;;;0.30;0.30;;;;;;;1.21;nan;98700.00;7388014;19;20018;-81
2023/11/30 07:56:39;;;;;;;0.43;0.43;;;;;;;1.16;nan;98704.06;7390041;19;20414;-81
2023/11/30 07:59:05;;;;;;;0.13;0.13;;;;;;;1.08;nan;98719.19;7390845;19;20469;-81
2023/11/30 08:01:31;;;;;;;0.47;0.47;;;;;;;1.05;nan;98702.84;7388538;19;20030;-81
2023/11/30 08:10:15;;;;;;;0.85;0.82;;;;;;;0.85;nan;98710.50;7390953;19;20006;-56
2023/11/30 08:12:42;;;;;;;0.30;0.30;;;;;;;0.82;nan;98708.66;7393547;19;20482;-56
2023/11/30 08:15:09;;;;;;;0.40;0.40;;;;;;;0.77;nan;98715.47;7399588;19;20397;-56
2023/11/30 08:17:35;;;;;;;0.10;0.10;;;;;;;0.77;nan;98707.25;7401155;19;20035;-56
2023/11/30 08:20:02;;;;;;;0.30;0.30;;;;;;;0.76;nan;98709.19;7395757;19;20014;-56
2023/11/30 08:22:28;;;;;;;0.50;0.50;;;;;;;0.82;nan;98712.19;7396690;19;20017;-56
2023/11/30 08:24:54;;;;;;;0.20;0.20;;;;;;;0.88;nan;98715.91;7399123;19;20014;-57
2023/11/30 08:27:23;;;;;;;0.60;0.60;;;;;;;0.99;nan;98710.88;7398226;19;20011;-56
2023/11/30 08:29:50;;;;;;;1.48;0.85;;;;;;;1.05;nan;98716.56;7397160;19;20018;-56
2023/11/30 08:32:16;;;;;;;0.25;0.25;;;;;;;1.08;nan;98724.69;7398532;19;20014;-56
2023/11/30 08:34:42;;;;;;;2.05;0.60;;;;;;;1.20;nan;98732.13;7401727;19;20010;-56
2023/11/30 08:37:08;;;;;;;0.82;0.82;;;;;;;1.30;nan;98739.22;7396453;19;20045;-56
2023/11/30 08:39:34;;;;;;;0.20;0.20;;;;;;;1.35;nan;98735.19;7396163;19;20070;-56
2023/11/30 08:42:01;;;;;;;1.00;0.63;;;;;;;1.40;nan;98735.41;7397827;19;20014;-56
2023/11/30 08:44:27;;;;;;;1.95;0.90;;;;;;;1.47;nan;98740.63;7396847;19;20014;-56
2023/11/30 08:46:53;;;;;;;0.85;0.73;;;;;;;1.47;nan;98751.59;7402187;19;20062;-56
2023/11/30 08:49:19;;;;;;;0.60;0.47;;;;;;;2.03;nan;98748.19;7397409;19;20011;-56
2023/11/30 08:51:45;;;;;;;0.20;0.20;;;;;;;1.64;nan;98759.72;7397381;19;20026;-56
2023/11/30 08:54:11;;;;;;;1.17;0.55;;;;;;;1.68;nan;98743.91;7397570;19;20033;-56
2023/11/30 08:56:37;;;;;;;0.30;0.30;;;;;;;1.80;nan;98740.38;7395265;19;20438;-56
2023/11/30 08:59:03;;;;;;;0.30;0.30;;;;;;;1.89;nan;98737.69;7399918;19;20114;-56
2023/11/30 09:01:30;;;;;;;0.17;0.17;;;;;;;1.97;nan;98744.50;7399619;19;20014;-56
2023/11/30 09:04:05;;;;;;;0.40;0.40;;;;;;;2.03;nan;98759.19;7400520;19;20011;-56
2023/11/30 09:06:35;;;;;;;0.20;0.20;;;;;;;2.06;nan;98753.56;7396631;19;20470;-56
2023/11/30 09:09:01;;;;;;;0.30;0.30;;;;;;;2.12;nan;98762.00;7399004;19;20015;-56
2023/11/30 09:11:30;;;;;;;0.55;0.55;;;;;;;2.11;nan;98761.22;7396440;19;20015;-56
2023/11/30 09:13:57;;;;;;;0.80;0.80;;;;;;;2.10;nan;98754.19;7396867;19;20021;-56
2023/11/30 09:16:25;;;;;;;0.10;0.10;;;;;;;2.10;nan;98753.44;7398232;19;20022;-56
2023/11/30 09:18:54;;;;;;;0.20;0.20;;;;;;;2.12;nan;98751.75;7398761;19;20011;-56
2023/11/30 09:21:21;;;;;;;0.20;0.20;;;;;;;2.15;nan;98761.88;7397506;19;20015;-56
2023/11/30 09:23:47;;;;;;;0.38;0.38;;;;;;;2.13;nan;98755.28;7397404;19;20019;-56
2023/11/30 09:26:13;;;;;;;0.38;0.38;;;;;;;2.05;nan;98762.25;7396957;19;20048;-56
2023/11/30 09:28:39;;;;;;;1.08;0.85;;;;;;;2.12;nan;98764.75;7396619;19;20022;-56
2023/11/30 09:31:07;;;;;;;0.80;0.30;;;;;;;2.09;nan;98773.88;7399947;19;20002;-56
2023/11/30 09:33:33;;;;;;;0.10;0.10;;;;;;;2.06;nan;98764.53;7396554;19;20462;-56
2023/11/30 09:35:59;;;;;;;0.30;0.30;;;;;;;2.08;nan;98769.59;7394462;19;20022;-56
2023/11/30 09:38:25;;;;;;;0.10;0.10;;;;;;;2.17;nan;98758.66;7394503;19;20026;-56
2023/11/30 09:40:52;;;;;;;1.20;0.95;;;;;;;2.25;nan;98770.97;7393992;19;20010;-56
2023/11/30 09:43:19;;;;;;;1.48;0.60;;;;;;;2.33;nan;98760.47;7399789;19;20014;-56
2023/11/30 09:45:47;;;;;;;0.30;0.30;;;;;;;2.44;nan;98767.13;7393698;19;20566;-56
2023/11/30 09:48:14;;;;;;;0.88;0.50;;;;;;;2.49;nan;98763.03;7395897;19;20467;-56
2023/11/30 09:50:41;;;;;;;0.10;0.10;;;;;;;2.52;nan;98768.41;7393687;19;20015;-56
2023/11/30 09:53:08;;;;;;;0.55;0.55;;;;;;;2.63;nan;98757.03;7394212;19;20011;-56
2023/11/30 09:55:37;;;;;;;1.17;0.70;;;;;;;2.59;nan;98765.41;7398780;19;20014;-56
2023/11/30 09:58:04;;;;;;;0.50;0.50;;;;;;;2.59;nan;98776.41;7393859;19;20034;-56
2023/11/30 10:00:30;;;;;;;0.15;0.15;;;;;;;2.63;nan;98768.78;7393875;19;20036;-56
2023/11/30 10:02:59;;;;;;;0.63;0.63;;;;;;;2.65;nan;98766.34;7396705;19;20014;-56
2023/11/30 10:05:28;;;;;;;0.60;0.60;;;;;;;2.71;nan;98767.31;7399094;19;20014;-56
2023/11/30 10:07:58;;;;;;;0.68;0.68;;;;;;;2.80;nan;98769.34;7395099;19;20015;-56
2023/11/30 10:10:25;;;;;;;0.43;0.43;;;;;;;2.83;nan;98771.19;7394435;19;20066;-56
2023/11/30 10:12:53;;;;;;;0.40;0.40;;;;;;;2.86;nan;98776.56;7395064;19;20010;-56
2023/11/30 10:15:22;;;;;;;0.85;0.65;;;;;;;2.83;nan;98762.94;7397344;19;20010;-56
2023/11/30 10:17:49;;;;;;;0.30;0.30;;;;;;;2.74;nan;98766.41;7397353;19;20014;-56
2023/11/30 10:20:16;;;;;;;5.25;0.65;;;;;;;2.72;nan;98768.84;7393850;19;20465;-56
2023/11/30 10:22:42;;;;;;;0.10;0.10;;;;;;;2.73;nan;98777.88;7393902;19;20014;-56
2023/11/30 10:25:09;;;;;;;0.30;0.30;;;;;;;2.67;nan;98768.66;7398654;19;20023;-56
2023/11/30 10:27:36;;;;;;;0.13;0.13;;;;;;;2.62;nan;98772.00;7393580;19;20015;-56
2023/11/30 10:30:06;;;;;;;0.32;0.32;;;;;;;2.57;nan;98773.34;7393788;19;20034;-56
2023/11/30 10:32:35;;;;;;;7.07;1.42;;;;;;;2.53;nan;98783.69;7394960;19;20041;-56
2023/11/30 10:35:05;;;;;;;4.22;0.95;;;;;;;2.48;nan;98778.75;7392444;19;20026;-56
2023/11/30 10:37:45;;;;;;;0.85;0.82;;;;;;;2.46;nan;98781.19;7390661;19;20011;-56
2023/11/30 10:40:12;;;;;;;4.55;1.38;;;;;;;2.47;nan;98781.97;7392906;19;20018;-56
2023/11/30 10:42:46;;;;;;;0.57;0.57;;;;;;;2.47;nan;98782.72;7392529;19;20014;-56
2023/11/30 10:45:14;;;;;;;2.75;0.95;;;;;;;2.51;nan;98788.88;7392508;19;20015;-56
2023/11/30 10:47:41;;;;;;;2.28;0.35;;;;;;;2.59;nan;98784.66;7392571;19;20011;-56
2023/11/30 10:50:09;;;;;;;0.47;0.43;;;;;;;2.68;nan;98786.69;7393235;19;20003;-56
2023/11/30 10:52:36;;;;;;;0.68;0.68;;;;;;;2.86;nan;98782.06;7393934;19;20458;-57
2023/11/30 10:55:16;;;;;;;0.45;0.45;;;;;;;3.03;nan;98779.88;7391684;19;20025;-56
2023/11/30 10:57:43;;;;;;;7.40;2.50;;;;;;;3.23;nan;98785.00;7392960;19;20021;-56
2023/11/30 11:00:14;;;;;;;1.55;0.70;;;;;;;3.35;nan;98784.13;7391346;19;20355;-56
2023/11/30 11:02:42;;;;;;;;;;;;;;;3.45;nan;98782.94;7393539;19;20011;-56
2023/11/30 11:05:09;;;;;;;0.30;0.30;;;;;;;3.48;nan;98787.53;7393205;19;19938;-56
2023/11/30 11:07:35;;;;;;;1.40;0.82;;;;;;;3.61;nan;98790.94;7392230;19;20010;-56
2023/11/30 11:10:06;;;;;;;0.70;0.65;;;;;;;3.63;nan;98789.28;7397003;19;20006;-56
2023/11/30 11:12:40;;;;;;;0.40;0.40;;;;;;;3.60;nan;98783.91;7394818;19;20050;-56
2023/11/30 11:15:08;;;;;;;0.70;0.70;;;;;;;3.59;nan;98787.88;7396436;19;20027;-56
2023/11/30 11:17:48;;;;;;;0.85;0.85;;;;;;;4.13;nan;98776.97;7393171;19;20002;-56
2023/11/30 11:20:35;;;;;;;0.17;0.17;;;;;;;4.73;nan;98781.84;7393247;19;20018;-56
2023/11/30 11:23:07;;;;;;;0.30;0.30;;;;;;;7.58;nan;98776.44;7392345;19;20039;-56
2023/11/30 11:25:41;;;;;;;0.30;0.30;;;;;;;12.88;nan;98770.25;7394218;19;20010;-56
2023/11/30 11:28:07;;;;;;;0.95;0.90;;;;;;;5.82;nan;98774.69;7391750;19;20382;-56
2023/11/30 11:30:41;;;;;;;13.45;1.05;;;;;;;11.60;nan;98769.91;7391599;19;20015;-56
2023/11/30 11:33:07;;;;;;;0.20;0.20;;;;;;;14.90;nan;98764.38;7394750;19;20062;-56
2023/11/30 11:35:33;;;;;;;0.60;0.60;;;;;;;5.99;nan;98778.59;7391430;19;20046;-56
2023/11/30 11:38:00;;;;;;;0.20;0.20;;;;;;;5.00;nan;98785.31;7395130;19;20006;-56
2023/11/30 11:40:26;;;;;;;0.35;0.30;;;;;;;4.41;nan;98780.50;7388484;19;20015;-56
2023/11/30 11:42:54;;;;;;;0.60;0.60;;;;;;;12.49;nan;98764.09;7391429;19;20026;-56
2023/11/30 11:45:21;;;;;;;0.15;0.15;;;;;;;23.98;nan;98754.53;7391507;19;20035;-56
2023/11/30 11:47:47;;;;;;;0.10;0.00;;;;;;;25.33;nan;98750.34;7394847;19;20018;-56
2023/11/30 11:50:13;;;;;;;0.17;0.17;;;;;;;26.14;nan;98750.31;7403517;19;20056;-57
2023/11/30 11:52:40;;;;;;;0.90;0.90;;;;;;;27.59;nan;98742.69;7398788;19;20014;-57
2023/11/30 11:55:08;;;;;;;1.00;0.90;;;;;;;15.99;nan;98767.97;7399005;19;20044;-57
2023/11/30 11:57:36;;;;;;;1.48;1.15;;;;;;;7.93;nan;98784.72;7397954;19;20038;-57
2023/11/30 12:00:04;;;;;;;1.13;0.98;;;;;;;6.26;nan;98779.66;7395652;19;20011;-57
2023/11/30 12:02:33;;;;;;;1.23;0.70;;;;;;;5.68;nan;98780.91;7402008;19;20513;-57